Time;durP1;ratioP1;P1;durP2;ratioP2;P2;SDS_P1;SDS_P2;PMS_P1;PMS_P2;Temp;Humidity;BMP_temperature;BMP_pressure;BME280_temperature;BME280_humidity;BME280_pressure;Samples;Min_cycle;Max_cycle;Signal;HPM_P1;HPM_P2
2022/03/10 00:02:21;;;;;;;35.45;18.40;;;;;;;;;;4955959;28;20075;-70
2022/03/10 00:04:48;;;;;;;35.85;17.88;;;;;;;;;;4956156;28;20098;-69
2022/03/10 00:07:14;;;;;;;39.45;18.83;;;;;;;;;;4955837;29;20055;-69
2022/03/10 00:09:41;;;;;;;32.20;16.88;;;;;;;;;;4958556;28;20556;-70
2022/03/10 00:12:07;;;;;;;28.80;16.08;;;;;;;;;;4975352;28;20054;-70
2022/03/10 00:14:34;;;;;;;32.97;16.77;;;;;;;;;;4975501;28;20391;-69
2022/03/10 00:17:01;;;;;;;33.35;17.60;;;;;;;;;;4975337;28;20050;-70
2022/03/10 00:19:27;;;;;;;31.40;17.17;;;;;;;;;;4974826;28;20050;-70
2022/03/10 00:21:54;;;;;;;35.60;17.85;;;;;;;;;;4975023;28;20186;-69
2022/03/10 00:24:21;;;;;;;30.92;17.38;;;;;;;;;;4974994;28;20110;-69
2022/03/10 00:26:47;;;;;;;37.80;18.65;;;;;;;;;;4975178;28;20050;-71
2022/03/10 00:29:14;;;;;;;33.25;18.75;;;;;;;;;;4974799;28;20110;-70
2022/03/10 00:31:41;;;;;;;27.85;16.40;;;;;;;;;;4974787;28;20055;-69
2022/03/10 00:34:08;;;;;;;36.25;18.25;;;;;;;;;;4969791;28;20134;-68
2022/03/10 00:36:34;;;;;;;32.53;17.52;;;;;;;;;;4955425;28;20487;-69
2022/03/10 00:39:02;;;;;;;33.72;17.30;;;;;;;;;;4955118;28;20503;-69
2022/03/10 00:41:29;;;;;;;32.28;16.45;;;;;;;;;;4955355;28;20051;-69
2022/03/10 00:43:55;;;;;;;31.02;16.83;;;;;;;;;;4955489;29;20048;-69
2022/03/10 00:46:22;;;;;;;34.03;17.98;;;;;;;;;;4955313;29;20043;-71
2022/03/10 00:48:51;;;;;;;31.90;18.10;;;;;;;;;;4955149;28;20055;-69
2022/03/10 00:51:18;;;;;;;29.80;16.77;;;;;;;;;;4955329;28;20057;-69
2022/03/10 00:53:45;;;;;;;33.75;17.48;;;;;;;;;;4955185;29;20106;-69
2022/03/10 00:56:11;;;;;;;35.53;19.23;;;;;;;;;;4955245;28;20044;-69
2022/03/10 00:58:38;;;;;;;34.25;17.38;;;;;;;;;;4954967;28;20114;-70
2022/03/10 01:01:08;;;;;;;33.08;17.13;;;;;;;;;;4954915;29;20138;-69
2022/03/10 01:03:35;;;;;;;32.03;16.55;;;;;;;;;;4954923;28;20126;-69
2022/03/10 01:06:02;;;;;;;30.40;17.50;;;;;;;;;;4955153;28;20126;-71
2022/03/10 01:08:29;;;;;;;32.45;17.63;;;;;;;;;;4955238;29;20098;-69
2022/03/10 01:10:55;;;;;;;32.85;16.75;;;;;;;;;;4954212;29;20047;-69
2022/03/10 01:13:22;;;;;;;36.25;18.13;;;;;;;;;;4955265;29;20047;-69
2022/03/10 01:15:49;;;;;;;35.42;20.15;;;;;;;;;;4954541;28;20466;-70
2022/03/10 01:18:16;;;;;;;32.60;17.30;;;;;;;;;;4954685;28;20495;-69
2022/03/10 01:20:43;;;;;;;36.85;19.52;;;;;;;;;;4954449;28;20055;-71
2022/03/10 01:23:10;;;;;;;39.20;18.05;;;;;;;;;;4954541;28;20055;-69
2022/03/10 01:25:37;;;;;;;41.83;19.23;;;;;;;;;;4954409;28;20051;-70
2022/03/10 01:28:04;;;;;;;32.83;17.58;;;;;;;;;;4954508;29;20050;-69
2022/03/10 01:30:31;;;;;;;30.45;17.48;;;;;;;;;;4952987;29;20106;-70
2022/03/10 01:32:57;;;;;;;35.00;16.98;;;;;;;;;;4954418;28;20498;-69
2022/03/10 01:35:24;;;;;;;31.20;17.05;;;;;;;;;;4954343;28;20054;-69
2022/03/10 01:37:51;;;;;;;33.70;17.75;;;;;;;;;;4954310;28;20055;-69
2022/03/10 01:40:18;;;;;;;29.67;16.00;;;;;;;;;;4954103;28;20054;-70
2022/03/10 01:42:46;;;;;;;31.25;17.08;;;;;;;;;;4954295;28;20051;-69
2022/03/10 01:45:13;;;;;;;30.67;16.30;;;;;;;;;;4954121;28;20047;-68
2022/03/10 01:47:40;;;;;;;28.30;15.02;;;;;;;;;;4954132;28;20058;-70
2022/03/10 01:50:09;;;;;;;36.78;17.08;;;;;;;;;;4953958;28;20055;-68
2022/03/10 01:52:36;;;;;;;31.27;16.80;;;;;;;;;;4937118;29;20078;-70
2022/03/10 01:55:03;;;;;;;30.83;17.58;;;;;;;;;;4952907;29;20059;-69
2022/03/10 01:57:30;;;;;;;29.58;16.55;;;;;;;;;;4954711;28;20102;-69
2022/03/10 01:59:56;;;;;;;30.50;16.25;;;;;;;;;;4955135;28;20511;-69
2022/03/10 02:02:23;;;;;;;32.08;16.15;;;;;;;;;;4954051;28;20047;-69
2022/03/10 02:04:50;;;;;;;26.90;15.75;;;;;;;;;;4968470;28;20051;-71
2022/03/10 02:10:17;;;;;;;31.40;17.25;;;;;;;;;;4947828;28;20510;-69
2022/03/10 02:12:52;;;;;;;29.55;15.32;;;;;;;;;;4972286;28;20055;-69
2022/03/10 02:18:07;;;;;;;31.05;15.82;;;;;;;;;;4955783;28;20061;-69
2022/03/10 02:20:34;;;;;;;30.20;17.52;;;;;;;;;;4953607;28;20558;-69
2022/03/10 02:23:01;;;;;;;30.60;17.05;;;;;;;;;;4953793;28;20047;-69
2022/03/10 02:25:28;;;;;;;33.42;17.42;;;;;;;;;;4953947;28;20098;-69
2022/03/10 02:27:56;;;;;;;31.45;16.75;;;;;;;;;;4953474;28;20549;-70
2022/03/10 02:30:25;;;;;;;31.52;16.85;;;;;;;;;;4961801;28;20055;-69
2022/03/10 02:32:52;;;;;;;32.63;16.50;;;;;;;;;;4991730;23;20130;-65
2022/03/10 02:35:19;;;;;;;31.95;16.02;;;;;;;;;;4972720;28;20517;-66
2022/03/10 02:37:47;;;;;;;32.75;17.50;;;;;;;;;;4972725;28;20051;-66
2022/03/10 02:40:14;;;;;;;30.63;15.60;;;;;;;;;;4956065;28;20126;-67
2022/03/10 02:42:41;;;;;;;28.58;16.80;;;;;;;;;;4971770;28;20129;-65
2022/03/10 02:45:09;;;;;;;29.38;15.93;;;;;;;;;;4971160;28;20105;-66
2022/03/10 02:47:36;;;;;;;28.98;15.52;;;;;;;;;;4955611;28;20047;-66
2022/03/10 02:50:04;;;;;;;27.70;15.52;;;;;;;;;;4955665;28;20058;-67
2022/03/10 02:52:30;;;;;;;25.08;15.20;;;;;;;;;;4955614;28;20102;-67
2022/03/10 02:54:57;;;;;;;26.88;14.93;;;;;;;;;;4972719;28;20493;-66
2022/03/10 02:57:24;;;;;;;28.17;15.30;;;;;;;;;;4959195;28;20055;-66
2022/03/10 02:59:50;;;;;;;31.75;16.40;;;;;;;;;;4953167;28;20502;-67
2022/03/10 03:02:17;;;;;;;23.40;13.57;;;;;;;;;;4953004;28;20522;-67
2022/03/10 03:04:43;;;;;;;30.00;16.15;;;;;;;;;;4953534;28;20051;-65
2022/03/10 03:07:10;;;;;;;26.88;14.93;;;;;;;;;;4952257;29;20077;-65
2022/03/10 03:09:37;;;;;;;25.83;14.80;;;;;;;;;;4952058;29;20329;-66
2022/03/10 03:12:04;;;;;;;25.60;13.75;;;;;;;;;;4953110;28;20055;-65
2022/03/10 03:14:30;;;;;;;26.08;15.30;;;;;;;;;;4953145;28;20055;-66
2022/03/10 03:16:57;;;;;;;26.80;14.07;;;;;;;;;;4951918;29;20494;-66
2022/03/10 03:19:24;;;;;;;27.63;15.23;;;;;;;;;;4952933;28;20093;-66
2022/03/10 03:21:51;;;;;;;23.30;14.07;;;;;;;;;;4937681;29;20531;-67
2022/03/10 03:24:18;;;;;;;27.67;15.10;;;;;;;;;;4955567;29;20489;-66
2022/03/10 03:26:47;;;;;;;28.60;15.20;;;;;;;;;;4956883;28;20054;-66
2022/03/10 03:29:13;;;;;;;27.10;14.35;;;;;;;;;;4955382;29;20051;-67
2022/03/10 03:31:40;;;;;;;29.92;15.45;;;;;;;;;;4956440;28;20396;-65
2022/03/10 03:34:10;;;;;;;26.35;14.20;;;;;;;;;;4958594;28;20121;-65
2022/03/10 03:36:41;;;;;;;28.05;14.32;;;;;;;;;;4976127;28;20439;-66
2022/03/10 03:39:08;;;;;;;26.55;15.05;;;;;;;;;;4958972;28;20469;-67
2022/03/10 03:41:35;;;;;;;26.85;15.05;;;;;;;;;;4958545;28;20058;-66
2022/03/10 03:44:01;;;;;;;27.60;15.30;;;;;;;;;;4973087;28;20564;-66
2022/03/10 03:46:28;;;;;;;25.20;14.73;;;;;;;;;;4956636;28;20051;-65
2022/03/10 03:48:55;;;;;;;25.63;14.38;;;;;;;;;;4956464;28;20054;-65
2022/03/10 03:51:22;;;;;;;26.75;15.45;;;;;;;;;;4956307;28;20059;-67
2022/03/10 03:53:49;;;;;;;25.30;14.13;;;;;;;;;;4956164;28;20059;-66
2022/03/10 03:56:16;;;;;;;27.85;14.30;;;;;;;;;;4973834;28;20458;-67
2022/03/10 03:58:43;;;;;;;24.05;14.05;;;;;;;;;;4958228;28;20062;-66
2022/03/10 04:01:11;;;;;;;25.15;14.52;;;;;;;;;;4973950;28;20057;-66
2022/03/10 04:03:38;;;;;;;25.45;14.75;;;;;;;;;;4974155;28;20130;-67
2022/03/10 04:06:04;;;;;;;25.50;14.27;;;;;;;;;;4974786;28;20101;-66
2022/03/10 04:08:31;;;;;;;22.85;13.48;;;;;;;;;;4975500;28;20090;-66
2022/03/10 04:10:58;;;;;;;26.50;14.18;;;;;;;;;;4974889;28;20046;-66
2022/03/10 04:13:24;;;;;;;27.05;14.70;;;;;;;;;;4974118;28;20054;-66
2022/03/10 04:15:51;;;;;;;28.35;14.95;;;;;;;;;;4974891;28;20093;-65
2022/03/10 04:18:18;;;;;;;23.60;14.60;;;;;;;;;;4973997;28;20051;-65
2022/03/10 04:20:45;;;;;;;24.52;13.88;;;;;;;;;;4974872;28;20109;-66
2022/03/10 04:23:12;;;;;;;20.73;13.60;;;;;;;;;;4973852;28;20050;-65
2022/03/10 04:25:39;;;;;;;28.52;14.40;;;;;;;;;;4961374;28;20577;-66
2022/03/10 04:28:06;;;;;;;26.08;14.85;;;;;;;;;;4955901;28;20051;-66
2022/03/10 04:30:33;;;;;;;28.45;14.32;;;;;;;;;;4938515;29;20098;-66
2022/03/10 04:33:00;;;;;;;23.77;13.73;;;;;;;;;;4955136;28;20063;-65
2022/03/10 04:35:27;;;;;;;28.80;14.20;;;;;;;;;;4954406;29;20051;-66
2022/03/10 04:37:54;;;;;;;26.27;15.35;;;;;;;;;;4955448;28;20399;-66
2022/03/10 04:40:22;;;;;;;28.15;14.57;;;;;;;;;;4954169;29;20047;-66
2022/03/10 04:42:50;;;;;;;28.48;15.30;;;;;;;;;;4954367;29;20051;-66
2022/03/10 04:45:16;;;;;;;26.50;14.35;;;;;;;;;;4938433;29;20504;-66
2022/03/10 04:47:43;;;;;;;23.55;13.82;;;;;;;;;;4938259;29;20076;-67
2022/03/10 04:50:11;;;;;;;22.33;13.60;;;;;;;;;;4955500;28;20063;-66
2022/03/10 04:52:38;;;;;;;23.13;12.65;;;;;;;;;;4954969;28;20106;-66
2022/03/10 04:55:06;;;;;;;24.65;14.00;;;;;;;;;;4938568;29;20134;-66
2022/03/10 04:57:34;;;;;;;27.73;14.80;;;;;;;;;;4938178;29;20098;-66
2022/03/10 05:00:02;;;;;;;27.88;14.45;;;;;;;;;;4955137;28;20051;-65
2022/03/10 05:02:29;;;;;;;25.63;14.57;;;;;;;;;;4954877;28;20123;-66
2022/03/10 05:04:56;;;;;;;24.67;14.23;;;;;;;;;;4960757;28;20395;-66
2022/03/10 05:07:22;;;;;;;22.48;12.90;;;;;;;;;;4973234;28;20051;-66
2022/03/10 05:09:49;;;;;;;26.40;13.25;;;;;;;;;;4973573;28;20078;-67
2022/03/10 05:12:15;;;;;;;23.70;12.95;;;;;;;;;;4973847;28;20054;-67
2022/03/10 05:14:42;;;;;;;23.38;13.05;;;;;;;;;;4968967;28;20043;-67
2022/03/10 05:17:09;;;;;;;25.25;13.70;;;;;;;;;;4954575;28;20047;-65
2022/03/10 05:19:35;;;;;;;21.80;13.25;;;;;;;;;;4954558;28;20058;-67
2022/03/10 05:22:03;;;;;;;25.05;14.45;;;;;;;;;;4954850;28;20047;-67
2022/03/10 05:24:29;;;;;;;23.35;13.65;;;;;;;;;;4957444;28;20101;-67
2022/03/10 05:26:57;;;;;;;29.17;15.13;;;;;;;;;;4972842;28;20050;-66
2022/03/10 05:29:23;;;;;;;22.20;12.93;;;;;;;;;;4972523;28;20047;-67
2022/03/10 05:31:50;;;;;;;27.10;14.30;;;;;;;;;;4972542;28;20090;-66
2022/03/10 05:34:17;;;;;;;24.40;13.80;;;;;;;;;;4973374;28;20493;-66
2022/03/10 05:36:43;;;;;;;24.80;13.15;;;;;;;;;;4973579;28;20548;-65
2022/03/10 05:39:10;;;;;;;20.85;12.93;;;;;;;;;;4973579;28;20050;-66
2022/03/10 05:41:37;;;;;;;26.48;13.48;;;;;;;;;;4973410;28;20108;-67
2022/03/10 05:44:04;;;;;;;23.38;13.45;;;;;;;;;;4966191;28;20098;-66
2022/03/10 05:46:31;;;;;;;24.00;13.70;;;;;;;;;;4952997;29;20122;-67
2022/03/10 05:48:58;;;;;;;23.10;12.95;;;;;;;;;;4954067;28;20047;-65
2022/03/10 05:51:24;;;;;;;22.70;12.73;;;;;;;;;;4953941;29;20051;-66
2022/03/10 05:53:51;;;;;;;23.38;13.90;;;;;;;;;;4952936;29;20055;-66
2022/03/10 05:56:18;;;;;;;22.75;13.13;;;;;;;;;;4952971;29;20051;-66
2022/03/10 05:58:46;;;;;;;23.23;13.18;;;;;;;;;;4952959;29;20047;-69
2022/03/10 06:01:14;;;;;;;28.27;15.27;;;;;;;;;;4958130;28;20047;-66
2022/03/10 06:03:41;;;;;;;26.65;15.00;;;;;;;;;;4973590;28;20058;-67
2022/03/10 06:06:11;;;;;;;26.17;14.40;;;;;;;;;;4972328;28;20051;-67
2022/03/10 06:08:38;;;;;;;22.08;12.98;;;;;;;;;;4973186;28;20129;-66
2022/03/10 06:11:07;;;;;;;25.33;13.05;;;;;;;;;;4965878;28;20071;-66
2022/03/10 06:13:34;;;;;;;23.95;12.95;;;;;;;;;;4960890;28;20047;-67
2022/03/10 06:16:01;;;;;;;22.42;12.35;;;;;;;;;;4964120;28;20061;-66
2022/03/10 06:18:27;;;;;;;24.50;13.55;;;;;;;;;;4963996;28;20065;-67
2022/03/10 06:20:54;;;;;;;22.33;12.77;;;;;;;;;;4968203;28;20101;-65
2022/03/10 06:23:21;;;;;;;25.77;12.88;;;;;;;;;;4955842;28;20055;-66
2022/03/10 06:25:47;;;;;;;23.20;13.45;;;;;;;;;;4965475;28;20051;-66
2022/03/10 06:28:14;;;;;;;24.67;13.55;;;;;;;;;;4964066;28;20280;-67
2022/03/10 06:30:40;;;;;;;27.08;13.43;;;;;;;;;;4961815;28;20114;-66
2022/03/10 06:33:10;;;;;;;22.98;13.18;;;;;;;;;;4952645;28;20529;-67
2022/03/10 06:35:36;;;;;;;22.15;13.18;;;;;;;;;;4967817;28;20135;-66
2022/03/10 06:38:03;;;;;;;28.65;13.75;;;;;;;;;;4972723;28;20098;-67
2022/03/10 06:40:30;;;;;;;22.33;12.77;;;;;;;;;;4972704;28;20133;-66
2022/03/10 06:42:56;;;;;;;22.98;12.02;;;;;;;;;;4972690;28;20109;-66
2022/03/10 06:45:23;;;;;;;20.13;12.40;;;;;;;;;;4972806;28;20059;-65
2022/03/10 06:47:50;;;;;;;22.33;13.20;;;;;;;;;;4972869;28;20105;-65
2022/03/10 06:50:16;;;;;;;25.73;13.25;;;;;;;;;;4973819;28;20110;-68
2022/03/10 06:52:43;;;;;;;28.20;14.45;;;;;;;;;;4952100;28;20496;-64
2022/03/10 06:55:10;;;;;;;24.95;13.88;;;;;;;;;;4952675;28;20106;-65
2022/03/10 06:57:36;;;;;;;25.58;14.65;;;;;;;;;;4957664;28;20055;-65
2022/03/10 07:00:05;;;;;;;36.40;18.70;;;;;;;;;;4957137;28;20098;-64
2022/03/10 07:02:31;;;;;;;41.10;22.02;;;;;;;;;;4955780;28;20491;-65
2022/03/10 07:04:58;;;;;;;38.97;19.85;;;;;;;;;;4957053;28;20110;-65
2022/03/10 07:07:25;;;;;;;37.92;20.67;;;;;;;;;;4956081;29;20098;-66
2022/03/10 07:09:51;;;;;;;33.58;18.38;;;;;;;;;;4956949;28;20498;-66
2022/03/10 07:12:18;;;;;;;33.28;19.30;;;;;;;;;;4957985;28;20117;-66
2022/03/10 07:14:45;;;;;;;34.33;18.58;;;;;;;;;;4968186;28;20055;-66
2022/03/10 07:17:11;;;;;;;34.33;18.65;;;;;;;;;;4968760;28;20066;-64
2022/03/10 07:19:38;;;;;;;36.47;17.63;;;;;;;;;;4966609;28;20046;-65
2022/03/10 07:22:05;;;;;;;32.78;18.10;;;;;;;;;;4968772;28;20046;-65
2022/03/10 07:24:31;;;;;;;35.10;18.65;;;;;;;;;;4974686;28;20101;-62
2022/03/10 07:26:59;;;;;;;31.42;18.23;;;;;;;;;;4967317;28;20039;-65
2022/03/10 07:29:26;;;;;;;30.40;17.70;;;;;;;;;;4959491;28;20046;-66
2022/03/10 07:31:56;;;;;;;32.83;18.58;;;;;;;;;;4972405;28;20267;-65
2022/03/10 07:34:22;;;;;;;34.33;17.63;;;;;;;;;;4958412;28;20062;-65
2022/03/10 07:36:49;;;;;;;32.72;17.85;;;;;;;;;;4971977;28;20101;-66
2022/03/10 07:39:16;;;;;;;29.95;16.83;;;;;;;;;;4965981;28;20105;-66
2022/03/10 07:41:42;;;;;;;31.73;16.83;;;;;;;;;;4959952;28;20047;-64
2022/03/10 07:44:09;;;;;;;31.63;17.58;;;;;;;;;;4955519;28;20051;-66
2022/03/10 07:46:36;;;;;;;32.92;17.88;;;;;;;;;;4966022;28;20510;-65
2022/03/10 07:49:04;;;;;;;28.33;15.88;;;;;;;;;;4960235;28;20051;-65
2022/03/10 07:51:32;;;;;;;32.83;16.23;;;;;;;;;;4955008;28;20078;-64
2022/03/10 07:53:58;;;;;;;29.40;15.35;;;;;;;;;;4957762;28;20055;-64
2022/03/10 07:56:25;;;;;;;31.48;15.70;;;;;;;;;;4954377;29;20082;-65
2022/03/10 07:58:52;;;;;;;25.75;14.80;;;;;;;;;;4953792;28;20094;-66
2022/03/10 08:01:19;;;;;;;25.55;15.55;;;;;;;;;;4960031;28;20061;-66
2022/03/10 08:03:47;;;;;;;27.35;14.60;;;;;;;;;;4971710;28;20074;-66
2022/03/10 08:06:14;;;;;;;25.27;15.48;;;;;;;;;;4973334;28;20129;-66
2022/03/10 08:08:40;;;;;;;26.05;14.32;;;;;;;;;;4972400;28;20471;-67
2022/03/10 08:11:08;;;;;;;28.48;14.90;;;;;;;;;;4969142;28;20054;-66
2022/03/10 08:13:35;;;;;;;25.27;14.52;;;;;;;;;;4952798;29;20051;-64
2022/03/10 08:16:02;;;;;;;27.33;15.13;;;;;;;;;;4954249;28;20047;-66
2022/03/10 08:18:29;;;;;;;21.38;12.65;;;;;;;;;;4937271;28;20450;-66
2022/03/10 08:20:59;;;;;;;29.98;15.90;;;;;;;;;;4963418;28;20047;-65
2022/03/10 08:23:26;;;;;;;29.35;15.98;;;;;;;;;;4953178;28;20055;-66
2022/03/10 08:25:54;;;;;;;28.48;16.20;;;;;;;;;;4953994;29;20059;-66
2022/03/10 08:28:21;;;;;;;27.17;14.75;;;;;;;;;;4953902;28;20055;-66
2022/03/10 08:30:47;;;;;;;27.33;16.00;;;;;;;;;;4953349;29;20478;-65
2022/03/10 08:33:14;;;;;;;22.45;12.60;;;;;;;;;;4965011;28;20477;-66
2022/03/10 08:35:41;;;;;;;22.90;13.32;;;;;;;;;;4973036;28;20541;-66
2022/03/10 08:38:08;;;;;;;22.67;12.77;;;;;;;;;;4973091;28;20050;-66
2022/03/10 08:40:34;;;;;;;21.13;12.45;;;;;;;;;;4971859;28;20051;-66
2022/03/10 08:43:01;;;;;;;22.52;11.82;;;;;;;;;;4971345;28;20055;-65
2022/03/10 08:45:28;;;;;;;18.20;11.13;;;;;;;;;;4956664;28;20506;-63
2022/03/10 08:47:55;;;;;;;16.27;10.65;;;;;;;;;;4953673;28;20047;-67
2022/03/10 08:50:24;;;;;;;16.27;11.10;;;;;;;;;;4936703;29;20113;-66
2022/03/10 08:52:51;;;;;;;18.83;10.95;;;;;;;;;;4952020;29;20057;-68
2022/03/10 08:55:19;;;;;;;15.65;9.60;;;;;;;;;;4953791;28;20055;-67
2022/03/10 08:57:47;;;;;;;16.10;10.13;;;;;;;;;;4972039;28;20047;-69
2022/03/10 09:00:15;;;;;;;16.00;8.32;;;;;;;;;;4958396;28;20062;-66
2022/03/10 09:02:41;;;;;;;13.32;8.43;;;;;;;;;;4961266;28;20094;-67
2022/03/10 09:05:09;;;;;;;13.43;8.20;;;;;;;;;;4958051;28;20046;-66
2022/03/10 09:07:36;;;;;;;14.13;8.10;;;;;;;;;;4962675;28;20047;-66
2022/03/10 09:10:08;;;;;;;10.70;8.15;;;;;;;;;;4954132;28;20050;-66
2022/03/10 09:12:35;;;;;;;11.00;7.68;;;;;;;;;;4942694;28;20047;-66
2022/03/10 09:15:02;;;;;;;16.95;8.30;;;;;;;;;;4969281;28;20061;-67
2022/03/10 09:17:29;;;;;;;11.13;8.10;;;;;;;;;;4960057;28;20106;-67
2022/03/10 09:19:56;;;;;;;12.10;8.23;;;;;;;;;;4959147;28;20421;-67
2022/03/10 09:22:25;;;;;;;12.10;8.43;;;;;;;;;;4961506;28;20101;-67
2022/03/10 09:24:52;;;;;;;12.02;8.40;;;;;;;;;;4956089;28;20051;-67
2022/03/10 09:27:19;;;;;;;13.73;8.13;;;;;;;;;;4959572;28;20476;-66
2022/03/10 09:29:46;;;;;;;11.75;7.68;;;;;;;;;;4957549;28;20506;-68
2022/03/10 09:32:12;;;;;;;13.65;8.27;;;;;;;;;;4961846;28;20046;-68
2022/03/10 09:34:40;;;;;;;12.07;7.97;;;;;;;;;;4947985;28;20478;-69
2022/03/10 09:37:06;;;;;;;12.50;8.50;;;;;;;;;;4968243;28;20051;-67
2022/03/10 09:39:33;;;;;;;14.10;7.97;;;;;;;;;;4959126;28;20046;-66
2022/03/10 09:42:03;;;;;;;12.68;7.95;;;;;;;;;;4958394;28;20684;-66
2022/03/10 09:44:30;;;;;;;10.98;7.57;;;;;;;;;;4966721;28;20043;-66
2022/03/10 09:47:02;;;;;;;9.82;6.38;;;;;;;;;;4969297;28;20046;-67
2022/03/10 09:49:30;;;;;;;11.07;7.22;;;;;;;;;;4942738;28;20077;-67
2022/03/10 09:51:56;;;;;;;13.80;7.10;;;;;;;;;;4957220;28;20055;-66
2022/03/10 09:54:23;;;;;;;11.27;6.80;;;;;;;;;;4960258;28;20577;-65
2022/03/10 09:56:50;;;;;;;11.45;6.88;;;;;;;;;;4960744;28;20054;-65
2022/03/10 09:59:20;;;;;;;9.10;6.70;;;;;;;;;;4938033;29;20051;-64
2022/03/10 10:01:47;;;;;;;10.20;7.20;;;;;;;;;;4958183;28;20528;-65
2022/03/10 10:04:14;;;;;;;11.52;6.85;;;;;;;;;;4965038;28;20055;-65
2022/03/10 10:07:21;;;;;;;10.00;6.68;;;;;;;;;;4959642;28;20051;-66
2022/03/10 10:09:54;;;;;;;8.18;6.32;;;;;;;;;;4890680;29;20417;-66
2022/03/10 10:12:30;;;;;;;8.02;5.88;;;;;;;;;;4876372;29;20602;-66
2022/03/10 10:14:57;;;;;;;7.90;5.72;;;;;;;;;;4924143;28;20479;-66
2022/03/10 10:17:26;;;;;;;8.52;5.80;;;;;;;;;;4943502;28;20051;-66
2022/03/10 10:19:55;;;;;;;8.25;5.18;;;;;;;;;;4943008;28;20134;-66
2022/03/10 10:22:34;;;;;;;7.80;5.15;;;;;;;;;;4956635;28;20050;-67
2022/03/10 10:25:05;;;;;;;8.05;4.97;;;;;;;;;;4958342;28;20047;-68
2022/03/10 10:27:33;;;;;;;7.18;4.38;;;;;;;;;;4959125;28;20059;-68
2022/03/10 10:30:06;;;;;;;8.13;4.88;;;;;;;;;;4940945;28;20067;-68
2022/03/10 10:32:43;;;;;;;7.22;4.32;;;;;;;;;;4956980;28;20055;-68
2022/03/10 10:35:12;;;;;;;6.25;4.05;;;;;;;;;;4958755;28;20530;-65
2022/03/10 10:37:42;;;;;;;7.07;4.32;;;;;;;;;;4958399;28;20098;-69
2022/03/10 10:40:09;;;;;;;5.63;3.90;;;;;;;;;;4943968;28;20518;-66
2022/03/10 10:42:39;;;;;;;5.00;3.72;;;;;;;;;;4960943;28;20054;-66
2022/03/10 10:45:34;;;;;;;5.60;3.92;;;;;;;;;;4968329;23;20122;-69
2022/03/10 10:48:01;;;;;;;4.53;3.53;;;;;;;;;;4933171;29;20052;-70
2022/03/10 10:50:29;;;;;;;5.25;3.35;;;;;;;;;;4933104;29;20107;-67
2022/03/10 10:52:56;;;;;;;4.00;2.85;;;;;;;;;;4933123;29;20103;-67
2022/03/10 10:55:22;;;;;;;7.70;3.03;;;;;;;;;;4928748;29;20056;-73
2022/03/10 10:57:51;;;;;;;3.85;3.20;;;;;;;;;;4916019;29;20056;-70
2022/03/10 11:00:18;;;;;;;4.38;3.03;;;;;;;;;;4934161;29;20056;-70
2022/03/10 11:02:44;;;;;;;4.47;3.00;;;;;;;;;;4933324;29;20110;-70
2022/03/10 11:05:14;;;;;;;4.03;2.90;;;;;;;;;;4933340;29;20048;-69
2022/03/10 11:07:42;;;;;;;6.55;3.17;;;;;;;;;;4926172;29;20048;-65
2022/03/10 11:10:12;;;;;;;4.72;3.28;;;;;;;;;;4930066;29;20048;-68
2022/03/10 11:12:41;;;;;;;4.40;3.28;;;;;;;;;;4930595;29;20055;-67
2022/03/10 11:15:08;;;;;;;4.70;3.17;;;;;;;;;;4921110;29;20195;-66
2022/03/10 11:17:35;;;;;;;5.32;3.50;;;;;;;;;;4931898;29;20407;-68
2022/03/10 11:20:06;;;;;;;3.95;3.10;;;;;;;;;;4931783;29;20126;-73
2022/03/10 11:22:55;;;;;;;4.40;3.10;;;;;;;;;;4916661;29;20056;-68
2022/03/10 11:25:34;;;;;;;4.35;3.30;;;;;;;;;;4928329;29;20464;-69
2022/03/10 11:28:14;;;;;;;7.05;3.60;;;;;;;;;;4932969;29;20047;-68
2022/03/10 11:30:50;;;;;;;4.72;3.25;;;;;;;;;;4932412;29;20055;-67
2022/03/10 11:33:17;;;;;;;4.40;3.08;;;;;;;;;;4933368;29;20090;-66
2022/03/10 11:35:45;;;;;;;5.38;3.05;;;;;;;;;;4932339;29;20102;-67
2022/03/10 11:38:14;;;;;;;5.60;3.13;;;;;;;;;;4929241;29;20044;-69
2022/03/10 11:40:57;;;;;;;5.57;2.60;;;;;;;;;;4933143;29;20047;-70
2022/03/10 11:43:31;;;;;;;3.58;2.78;;;;;;;;;;4934996;29;20099;-66
2022/03/10 11:46:17;;;;;;;4.50;2.80;;;;;;;;;;4935207;29;20058;-71
2022/03/10 11:48:59;;;;;;;4.50;2.45;;;;;;;;;;4936333;29;20102;-70
2022/03/10 11:51:48;;;;;;;3.50;2.42;;;;;;;;;;4935923;29;20055;-72
2022/03/10 11:54:16;;;;;;;3.92;2.70;;;;;;;;;;4933808;29;20113;-73
2022/03/10 11:56:50;;;;;;;2.88;2.10;;;;;;;;;;4936710;29;20075;-69
2022/03/10 11:59:31;;;;;;;3.78;2.22;;;;;;;;;;4941131;29;20055;-72
2022/03/10 12:01:59;;;;;;;2.63;2.00;;;;;;;;;;4945547;29;20054;-72
2022/03/10 12:04:40;;;;;;;3.30;2.40;;;;;;;;;;4923710;29;20047;-74
2022/03/10 12:07:15;;;;;;;3.72;2.70;;;;;;;;;;4937028;29;20052;-73
2022/03/10 12:09:42;;;;;;;5.32;2.42;;;;;;;;;;4929844;29;20499;-73
2022/03/10 12:12:20;;;;;;;3.45;2.70;;;;;;;;;;4934675;29;20123;-74
2022/03/10 12:15:34;;;;;;;4.80;3.13;;;;;;;;;;4934574;29;20106;-73
2022/03/10 12:18:16;;;;;;;4.15;2.95;;;;;;;;;;4934466;29;20550;-74
2022/03/10 12:20:55;;;;;;;3.97;3.22;;;;;;;;;;4932225;29;20064;-75
2022/03/10 12:23:26;;;;;;;3.47;2.97;;;;;;;;;;4936506;29;20051;-71
2022/03/10 12:25:59;;;;;;;4.13;3.40;;;;;;;;;;4936034;29;20557;-73
2022/03/10 12:28:37;;;;;;;4.65;3.13;;;;;;;;;;4936299;29;20511;-70
2022/03/10 12:31:16;;;;;;;3.97;3.30;;;;;;;;;;4937359;29;20060;-67
2022/03/10 12:33:52;;;;;;;4.50;2.80;;;;;;;;;;4935527;29;20052;-68
2022/03/10 12:36:38;;;;;;;4.43;3.05;;;;;;;;;;4934931;29;20056;-67
2022/03/10 12:39:13;;;;;;;4.38;3.10;;;;;;;;;;4935519;29;20055;-72
2022/03/10 12:41:42;;;;;;;9.35;3.95;;;;;;;;;;4935930;29;20047;-72
2022/03/10 12:44:09;;;;;;;4.30;3.42;;;;;;;;;;4935650;29;20103;-71
2022/03/10 12:46:38;;;;;;;9.52;4.38;;;;;;;;;;4933162;29;20529;-69
2022/03/10 12:49:24;;;;;;;7.70;4.05;;;;;;;;;;4935062;29;20063;-69
2022/03/10 12:51:54;;;;;;;5.43;3.45;;;;;;;;;;4934883;29;20111;-70
2022/03/10 12:54:22;;;;;;;3.75;3.28;;;;;;;;;;4929000;29;20103;-69
2022/03/10 12:56:50;;;;;;;4.07;3.58;;;;;;;;;;4934612;29;20048;-71
2022/03/10 12:59:30;;;;;;;5.13;4.10;;;;;;;;;;4934860;29;20494;-68
2022/03/10 13:02:13;;;;;;;5.38;3.42;;;;;;;;;;4934282;29;20058;-68
2022/03/10 13:04:55;;;;;;;3.53;3.17;;;;;;;;;;4934721;29;20048;-68
2022/03/10 13:07:23;;;;;;;3.95;3.45;;;;;;;;;;4933091;29;20052;-68
2022/03/10 13:09:53;;;;;;;3.70;2.85;;;;;;;;;;4934790;29;20043;-68
2022/03/10 13:12:31;;;;;;;3.78;3.28;;;;;;;;;;4934582;29;20052;-68
2022/03/10 13:14:58;;;;;;;4.07;3.40;;;;;;;;;;4930723;29;20499;-68
2022/03/10 13:17:39;;;;;;;4.10;3.10;;;;;;;;;;4935127;29;20055;-68
2022/03/10 13:20:14;;;;;;;6.70;3.45;;;;;;;;;;4933897;29;20046;-68
2022/03/10 13:22:55;;;;;;;3.42;2.95;;;;;;;;;;4933004;29;20048;-68
2022/03/10 13:25:24;;;;;;;5.35;3.58;;;;;;;;;;4933648;29;20111;-68
2022/03/10 13:27:51;;;;;;;4.70;3.25;;;;;;;;;;4934892;29;20111;-68
2022/03/10 13:30:19;;;;;;;6.65;3.85;;;;;;;;;;4935270;29;20078;-68
2022/03/10 13:32:47;;;;;;;5.63;3.58;;;;;;;;;;4935178;29;20086;-68
2022/03/10 13:35:14;;;;;;;11.93;4.03;;;;;;;;;;4930644;29;20043;-69
2022/03/10 13:37:41;;;;;;;4.57;3.65;;;;;;;;;;4933334;29;20114;-68
2022/03/10 13:40:08;;;;;;;4.97;3.65;;;;;;;;;;4934185;29;20538;-67
2022/03/10 13:42:35;;;;;;;3.80;3.10;;;;;;;;;;4932794;29;20082;-69
2022/03/10 13:45:12;;;;;;;5.47;3.28;;;;;;;;;;4934214;29;20477;-68
2022/03/10 13:47:58;;;;;;;3.78;2.95;;;;;;;;;;4934055;29;20098;-68
2022/03/10 13:50:38;;;;;;;5.72;3.08;;;;;;;;;;4932209;29;20050;-68
2022/03/10 13:53:06;;;;;;;5.15;3.70;;;;;;;;;;4934294;29;20047;-68
2022/03/10 13:55:36;;;;;;;3.85;3.20;;;;;;;;;;4934095;29;20200;-68
2022/03/10 13:58:05;;;;;;;5.28;4.07;;;;;;;;;;4934146;29;20563;-68
2022/03/10 14:00:41;;;;;;;4.68;3.60;;;;;;;;;;4933629;29;20555;-68
2022/03/10 14:03:10;;;;;;;5.38;3.72;;;;;;;;;;4933075;29;20051;-68
2022/03/10 14:05:41;;;;;;;4.40;3.33;;;;;;;;;;4932812;29;20438;-69
2022/03/10 14:08:13;;;;;;;6.25;4.10;;;;;;;;;;4930647;29;20047;-68
2022/03/10 14:10:40;;;;;;;4.40;3.80;;;;;;;;;;4932249;29;20123;-69
2022/03/10 14:13:08;;;;;;;4.75;3.90;;;;;;;;;;4932096;29;20052;-69
2022/03/10 14:15:37;;;;;;;4.97;4.00;;;;;;;;;;4928583;29;20503;-70
2022/03/10 14:18:08;;;;;;;5.88;3.70;;;;;;;;;;4932946;29;20055;-69
2022/03/10 14:20:42;;;;;;;5.40;3.45;;;;;;;;;;4932308;29;20114;-69
2022/03/10 14:23:10;;;;;;;3.83;3.47;;;;;;;;;;4933239;29;20056;-70
2022/03/10 14:25:47;;;;;;;4.05;3.65;;;;;;;;;;4931048;29;20052;-72
2022/03/10 14:28:16;;;;;;;4.22;3.78;;;;;;;;;;4933688;29;20055;-69
2022/03/10 14:30:50;;;;;;;4.15;3.65;;;;;;;;;;4932757;29;20095;-68
2022/03/10 14:33:20;;;;;;;4.15;3.60;;;;;;;;;;4930261;29;20071;-69
2022/03/10 14:35:46;;;;;;;5.70;4.22;;;;;;;;;;4932825;29;20102;-68
2022/03/10 14:38:14;;;;;;;4.30;3.67;;;;;;;;;;4933081;29;20462;-69
2022/03/10 14:40:41;;;;;;;5.95;4.53;;;;;;;;;;4933323;29;20044;-69
2022/03/10 14:43:09;;;;;;;3.33;2.95;;;;;;;;;;4933297;29;20052;-69